createdAt,value
2023-01-26T00:01:15.698Z,12.73
2023-01-26T00:03:44.569Z,11.90
2023-01-26T00:06:15.314Z,10.40
2023-01-26T00:08:44.869Z,11.47
2023-01-26T00:11:17.291Z,11.40
2023-01-26T00:13:45.778Z,12.73
2023-01-26T00:16:16.119Z,13.37
2023-01-26T00:18:44.841Z,11.83
2023-01-26T00:21:15.420Z,12.20
2023-01-26T00:23:43.698Z,12.03
2023-01-26T00:26:17.255Z,13.07
2023-01-26T00:28:45.695Z,13.23
2023-01-26T00:31:15.681Z,13.27
2023-01-26T00:33:43.839Z,12.90
2023-01-26T00:36:12.790Z,13.60
2023-01-26T00:38:41.980Z,13.43
2023-01-26T00:41:30.567Z,12.70
2023-01-26T00:44:00.366Z,12.83
2023-01-26T00:46:28.762Z,12.67
2023-01-26T00:48:56.973Z,12.83
2023-01-26T00:51:25.207Z,13.33
2023-01-26T00:53:53.304Z,11.60
2023-01-26T00:56:21.531Z,12.20
2023-01-26T00:58:49.629Z,11.73
2023-01-26T01:01:19.744Z,11.23
2023-01-26T01:03:47.828Z,11.57
2023-01-26T01:06:15.956Z,11.70
2023-01-26T01:08:44.053Z,11.23
2023-01-26T01:11:13.613Z,11.03
2023-01-26T01:13:42.086Z,10.50
2023-01-26T01:16:12.117Z,9.50
2023-01-26T01:18:41.960Z,10.17
2023-01-26T01:21:11.680Z,10.20
2023-01-26T01:23:40.454Z,10.73
2023-01-26T01:26:09.397Z,10.73
2023-01-26T01:28:38.015Z,9.83
2023-01-26T01:31:06.762Z,10.53
2023-01-26T01:33:35.001Z,11.03
2023-01-26T01:36:06.266Z,10.43
2023-01-26T01:38:34.390Z,11.27
2023-01-26T01:41:04.394Z,10.33
2023-01-26T01:43:32.574Z,10.40
2023-01-26T01:46:02.488Z,9.97
2023-01-26T01:48:36.860Z,10.97
2023-01-26T01:51:12.733Z,11.10
2023-01-26T01:53:44.924Z,10.37
2023-01-26T01:56:19.195Z,10.80
2023-01-26T01:58:47.820Z,11.13
2023-01-26T02:01:16.141Z,12.07
2023-01-26T02:03:48.175Z,11.47
2023-01-26T02:06:21.402Z,11.50
2023-01-26T02:08:52.727Z,11.40
2023-01-26T02:11:25.656Z,11.23
2023-01-26T02:13:55.884Z,10.23
2023-01-26T02:16:24.034Z,11.70
2023-01-26T02:18:52.188Z,10.30
2023-01-26T02:21:23.866Z,9.10
2023-01-26T02:24:12.929Z,10.83
2023-01-26T02:26:43.112Z,10.07
2023-01-26T02:29:12.862Z,10.50
2023-01-26T02:31:44.799Z,9.50
2023-01-26T02:34:13.105Z,9.30
2023-01-26T02:36:42.038Z,8.30
2023-01-26T02:39:28.164Z,9.03
2023-01-26T02:42:15.087Z,9.67
2023-01-26T02:44:45.203Z,8.60
2023-01-26T02:47:14.118Z,10.07
2023-01-26T02:49:47.597Z,9.10
2023-01-26T02:52:17.541Z,9.90
2023-01-26T02:55:05.372Z,8.57
2023-01-26T02:57:35.545Z,8.70
2023-01-26T03:00:03.888Z,8.80
2023-01-26T03:02:32.514Z,9.47
2023-01-26T03:05:00.664Z,7.67
2023-01-26T03:07:29.307Z,10.00
2023-01-26T03:09:58.871Z,9.23
2023-01-26T03:12:27.409Z,8.83
2023-01-26T03:15:14.538Z,9.83
2023-01-26T03:17:42.637Z,9.40
2023-01-26T03:20:29.278Z,9.17
2023-01-26T03:23:14.751Z,9.50
2023-01-26T03:26:01.628Z,8.83
2023-01-26T03:28:33.530Z,9.50
2023-01-26T03:31:08.273Z,9.50
2023-01-26T03:33:36.651Z,10.13
2023-01-26T03:36:06.085Z,10.47
2023-01-26T03:38:35.126Z,9.83
2023-01-26T03:41:21.523Z,10.23
2023-01-26T03:44:07.229Z,11.00
2023-01-26T03:46:54.630Z,9.17
2023-01-26T03:49:39.873Z,8.87
2023-01-26T03:52:25.764Z,9.57
2023-01-26T03:55:11.048Z,10.67
2023-01-26T03:57:39.211Z,10.07
2023-01-26T04:00:08.627Z,9.77
2023-01-26T04:02:59.201Z,9.13
2023-01-26T04:05:45.780Z,10.27
2023-01-26T04:08:24.587Z,11.93
2023-01-26T04:11:01.174Z,9.30
2023-01-26T04:13:46.608Z,10.97
2023-01-26T04:16:41.905Z,9.80
2023-01-26T04:19:29.560Z,11.20
2023-01-26T04:22:00.633Z,11.00
2023-01-26T04:24:29.658Z,10.53
2023-01-26T04:26:58.932Z,11.47
2023-01-26T04:29:31.854Z,10.97
2023-01-26T04:32:00.050Z,11.20
2023-01-26T04:34:30.510Z,11.60
2023-01-26T04:36:59.228Z,12.13
2023-01-26T04:39:33.784Z,12.90
2023-01-26T04:42:01.977Z,13.03
2023-01-26T04:44:30.527Z,13.03
2023-01-26T04:46:59.092Z,11.73
2023-01-26T04:49:27.391Z,12.67
2023-01-26T04:51:57.339Z,11.90
2023-01-26T04:54:25.562Z,12.33
2023-01-26T04:56:53.886Z,13.53
2023-01-26T04:59:22.187Z,13.10
2023-01-26T05:01:50.296Z,13.00
2023-01-26T05:04:18.417Z,13.30
2023-01-26T05:06:48.155Z,13.43
2023-01-26T05:09:18.443Z,13.33
2023-01-26T05:11:49.598Z,14.03
2023-01-26T05:14:36.115Z,14.43
2023-01-26T05:17:31.844Z,14.40
2023-01-26T05:20:16.840Z,12.00
2023-01-26T05:23:07.947Z,12.83
2023-01-26T05:25:48.441Z,12.07
2023-01-26T05:28:17.400Z,12.13
2023-01-26T05:30:45.653Z,13.97
2023-01-26T05:33:13.718Z,13.97
2023-01-26T05:35:41.825Z,13.83
2023-01-26T05:38:11.291Z,12.77
2023-01-26T05:40:39.454Z,13.67
2023-01-26T05:43:09.479Z,13.33
2023-01-26T05:46:12.767Z,13.57
2023-01-26T05:48:43.952Z,13.90
2023-01-26T05:51:12.569Z,13.63
2023-01-26T05:53:40.730Z,13.30
2023-01-26T05:56:09.964Z,14.87
2023-01-26T05:58:44.811Z,13.50
2023-01-26T06:01:12.979Z,13.57
2023-01-26T06:03:49.353Z,13.40
2023-01-26T06:06:17.610Z,13.33
2023-01-26T06:08:52.941Z,12.87
2023-01-26T06:11:33.958Z,13.67
2023-01-26T06:14:18.968Z,15.27
2023-01-26T06:16:47.202Z,13.77
2023-01-26T06:19:15.775Z,14.43
2023-01-26T06:21:47.293Z,14.90
2023-01-26T06:24:15.493Z,12.33
2023-01-26T06:26:43.600Z,13.77
2023-01-26T06:29:12.413Z,14.37
2023-01-26T06:31:42.768Z,12.93
2023-01-26T06:34:12.228Z,12.17
2023-01-26T06:36:42.761Z,13.83
2023-01-26T06:39:17.268Z,13.20
2023-01-26T06:41:45.576Z,13.53
2023-01-26T06:44:13.875Z,13.23
2023-01-26T06:46:43.321Z,13.53
2023-01-26T06:49:11.624Z,13.47
2023-01-26T06:51:48.382Z,12.50
2023-01-26T06:54:17.359Z,12.77
2023-01-26T06:57:09.856Z,12.90
2023-01-26T06:59:46.379Z,13.60
2023-01-26T07:02:45.362Z,13.23
2023-01-26T07:05:13.460Z,13.23
2023-01-26T07:07:41.555Z,13.10
2023-01-26T07:10:11.104Z,11.97
2023-01-26T07:12:40.469Z,13.43
2023-01-26T07:15:09.864Z,13.13
2023-01-26T07:17:37.971Z,13.33
2023-01-26T07:20:09.108Z,13.63
2023-01-26T07:22:37.292Z,12.83
2023-01-26T07:25:05.665Z,14.57
2023-01-26T07:27:33.761Z,13.07
2023-01-26T07:30:01.811Z,13.00
2023-01-26T07:32:29.963Z,12.83
2023-01-26T07:34:58.577Z,12.70
2023-01-26T07:37:30.204Z,12.63
2023-01-26T07:39:58.277Z,12.20
2023-01-26T07:42:26.394Z,11.63
2023-01-26T07:45:06.945Z,12.30
2023-01-26T07:47:36.007Z,11.90
2023-01-26T07:50:04.148Z,12.57
2023-01-26T07:52:33.738Z,13.37
2023-01-26T07:55:01.819Z,12.23
2023-01-26T07:57:29.859Z,13.20
2023-01-26T07:59:57.967Z,13.27
2023-01-26T08:02:26.187Z,12.73
2023-01-26T08:04:54.238Z,14.03
2023-01-26T08:07:22.323Z,13.53
2023-01-26T08:09:51.758Z,13.53
2023-01-26T08:12:19.892Z,12.53
2023-01-26T08:14:48.221Z,12.70
2023-01-26T08:17:17.644Z,13.13
2023-01-26T08:19:46.072Z,13.13
2023-01-26T08:22:14.266Z,12.07
2023-01-26T08:24:42.372Z,12.20
2023-01-26T08:27:11.839Z,12.27
2023-01-26T08:29:39.951Z,11.60
2023-01-26T08:32:08.346Z,12.13
2023-01-26T08:34:36.490Z,12.27
2023-01-26T08:37:04.808Z,12.63
2023-01-26T08:39:32.891Z,11.87
2023-01-26T08:42:00.975Z,13.27
2023-01-26T08:44:30.497Z,13.63
2023-01-26T08:46:58.719Z,12.43
2023-01-26T08:49:26.809Z,12.70
2023-01-26T08:51:54.925Z,13.03
2023-01-26T08:54:23.465Z,12.17
2023-01-26T08:56:51.571Z,13.90
2023-01-26T08:59:19.669Z,14.73
2023-01-26T09:01:51.194Z,14.07
2023-01-26T09:04:19.432Z,14.17
2023-01-26T09:06:47.514Z,12.83
2023-01-26T09:09:15.623Z,13.10
2023-01-26T09:11:44.001Z,12.70
2023-01-26T09:14:12.139Z,12.43
2023-01-26T09:16:40.354Z,12.20
2023-01-26T09:19:09.894Z,11.90
2023-01-26T09:21:37.985Z,12.37
2023-01-26T09:24:06.945Z,13.17
2023-01-26T09:26:35.131Z,14.83
2023-01-26T09:29:03.756Z,13.43
2023-01-26T09:31:31.912Z,12.13
2023-01-26T09:34:00.342Z,13.93
2023-01-26T09:36:29.775Z,13.37
2023-01-26T09:38:57.935Z,13.33
2023-01-26T09:41:50.905Z,12.43
2023-01-26T09:44:25.095Z,13.47
2023-01-26T09:47:05.470Z,12.77
2023-01-26T09:49:44.805Z,14.03
2023-01-26T09:52:22.000Z,13.97
2023-01-26T09:54:52.878Z,13.37
2023-01-26T09:57:26.253Z,14.47
2023-01-26T09:59:59.739Z,13.37
2023-01-26T10:02:39.272Z,15.10
2023-01-26T10:05:16.315Z,14.23
2023-01-26T10:07:46.480Z,15.20
2023-01-26T10:10:19.995Z,15.20
2023-01-26T10:12:51.502Z,13.00
2023-01-26T10:15:30.912Z,14.43
2023-01-26T10:18:03.671Z,13.17
2023-01-26T10:20:34.559Z,13.10
2023-01-26T10:23:08.584Z,13.83
2023-01-26T10:25:38.666Z,14.43
2023-01-26T10:28:14.836Z,14.37
2023-01-26T10:30:44.108Z,13.97
2023-01-26T10:33:17.821Z,12.60
2023-01-26T10:35:46.235Z,13.40
2023-01-26T10:38:46.840Z,13.40
2023-01-26T10:41:30.411Z,12.30
2023-01-26T10:44:00.226Z,11.30
2023-01-26T10:46:34.865Z,11.90
2023-01-26T10:49:05.119Z,11.00
2023-01-26T10:51:35.091Z,11.13
2023-01-26T10:54:33.739Z,11.63
2023-01-26T10:57:04.421Z,11.63
2023-01-26T10:59:35.120Z,11.77
2023-01-26T11:02:20.708Z,10.57
2023-01-26T11:05:05.158Z,10.03
2023-01-26T11:07:35.960Z,10.13
2023-01-26T11:10:23.579Z,10.17
2023-01-26T11:12:53.312Z,9.57
2023-01-26T11:15:22.787Z,9.10
2023-01-26T11:17:58.025Z,9.50
2023-01-26T11:20:52.475Z,8.43
2023-01-26T11:23:30.984Z,9.20
2023-01-26T11:26:24.573Z,9.03
2023-01-26T11:29:08.325Z,9.50
2023-01-26T11:31:47.375Z,8.27
2023-01-26T11:34:25.947Z,7.50
2023-01-26T11:37:04.354Z,8.17
2023-01-26T11:39:41.060Z,8.50
2023-01-26T11:42:24.908Z,8.90
2023-01-26T11:45:07.616Z,9.33
2023-01-26T11:47:49.726Z,9.03
2023-01-26T11:50:30.355Z,9.70
2023-01-26T11:53:21.305Z,9.63
2023-01-26T11:56:00.712Z,9.27
2023-01-26T11:58:35.600Z,9.47
2023-01-26T12:01:08.932Z,8.83
2023-01-26T12:03:44.144Z,8.17
2023-01-26T12:06:18.879Z,8.47
2023-01-26T12:08:52.468Z,8.57
2023-01-26T12:11:25.618Z,9.53
2023-01-26T12:14:13.730Z,9.43
2023-01-26T12:16:52.391Z,8.07
2023-01-26T12:19:35.957Z,9.23
2023-01-26T12:22:12.570Z,9.83
2023-01-26T12:25:16.085Z,9.60
2023-01-26T12:27:41.570Z,9.67
2023-01-26T12:30:35.592Z,10.37
2023-01-26T12:33:04.005Z,9.07
2023-01-26T12:35:57.041Z,8.87
2023-01-26T12:38:37.733Z,8.67
2023-01-26T12:41:13.804Z,8.87
2023-01-26T12:43:58.315Z,9.10
2023-01-26T12:46:32.538Z,9.13
2023-01-26T12:49:06.824Z,9.80
2023-01-26T12:51:39.334Z,9.00
2023-01-26T12:54:16.461Z,9.03
2023-01-26T12:56:49.789Z,9.90
2023-01-26T12:59:39.705Z,7.90
2023-01-26T13:02:26.837Z,8.10
2023-01-26T13:04:55.328Z,9.23
2023-01-26T13:07:33.399Z,9.83
2023-01-26T13:10:23.978Z,8.53
2023-01-26T13:12:56.749Z,8.70
2023-01-26T13:15:27.409Z,8.63
2023-01-26T13:17:59.506Z,8.10
2023-01-26T13:20:42.332Z,7.90
2023-01-26T13:23:40.367Z,7.87
2023-01-26T13:26:25.593Z,8.97
2023-01-26T13:28:56.495Z,9.10
2023-01-26T13:31:34.900Z,9.40
2023-01-26T13:34:09.461Z,8.13
2023-01-26T13:36:41.086Z,8.30
2023-01-26T13:39:15.537Z,8.87
2023-01-26T13:41:48.355Z,9.70
2023-01-26T13:44:19.733Z,8.17
2023-01-26T13:46:53.521Z,9.67
2023-01-26T13:49:27.813Z,8.80
2023-01-26T13:51:55.969Z,8.50
2023-01-26T13:54:26.713Z,9.10
2023-01-26T13:57:03.932Z,9.37
2023-01-26T13:59:33.186Z,7.80
2023-01-26T14:02:02.089Z,8.43
2023-01-26T14:04:32.718Z,8.10
2023-01-26T14:07:06.084Z,8.43
2023-01-26T14:09:36.377Z,9.03
2023-01-26T14:12:08.502Z,7.73
2023-01-26T14:14:38.537Z,8.47
2023-01-26T14:17:08.940Z,9.13
2023-01-26T14:19:43.025Z,9.43
2023-01-26T14:22:15.709Z,10.23
2023-01-26T14:24:44.256Z,8.90
2023-01-26T14:27:31.277Z,10.03
2023-01-26T14:29:59.596Z,9.73
2023-01-26T14:32:29.923Z,10.40
2023-01-26T14:35:01.144Z,9.53
2023-01-26T14:37:30.215Z,9.40
2023-01-26T14:40:19.376Z,9.83
2023-01-26T14:42:48.364Z,9.67
2023-01-26T14:45:16.860Z,8.97
2023-01-26T14:47:45.453Z,9.27
2023-01-26T14:50:24.068Z,9.43
2023-01-26T14:52:52.234Z,9.80
2023-01-26T14:55:23.841Z,8.93
2023-01-26T14:57:52.836Z,10.00
2023-01-26T15:00:26.739Z,10.33
2023-01-26T15:02:57.040Z,10.43
2023-01-26T15:05:34.713Z,10.13
2023-01-26T15:08:04.931Z,11.10
2023-01-26T15:10:36.986Z,10.00
2023-01-26T15:13:19.877Z,10.23
2023-01-26T15:15:50.063Z,10.70
2023-01-26T15:18:20.689Z,11.57
2023-01-26T15:21:00.769Z,11.23
2023-01-26T15:23:31.189Z,10.47
2023-01-26T15:26:06.950Z,11.43
2023-01-26T15:28:35.805Z,12.07
2023-01-26T15:31:04.768Z,12.07
2023-01-26T15:33:51.708Z,11.70
2023-01-26T15:36:31.064Z,11.03
2023-01-26T15:39:06.031Z,10.23
2023-01-26T15:41:34.146Z,12.17
2023-01-26T15:44:02.348Z,11.17
2023-01-26T15:46:30.759Z,11.57
2023-01-26T15:48:59.004Z,11.50
2023-01-26T15:51:28.584Z,11.27
2023-01-26T15:53:56.695Z,12.93
2023-01-26T15:56:24.823Z,11.77
2023-01-26T15:58:52.890Z,12.63
2023-01-26T16:01:23.268Z,12.03
2023-01-26T16:03:51.945Z,12.87
2023-01-26T16:06:25.262Z,13.00
2023-01-26T16:08:55.220Z,13.40
2023-01-26T16:11:26.441Z,13.13
2023-01-26T16:14:03.343Z,11.70
2023-01-26T16:16:32.564Z,13.87
2023-01-26T16:19:00.829Z,13.47
2023-01-26T16:21:31.760Z,12.47
2023-01-26T16:24:01.702Z,11.97
2023-01-26T16:26:30.625Z,14.63
2023-01-26T16:28:59.225Z,14.10
2023-01-26T16:31:30.483Z,12.93
2023-01-26T16:33:59.981Z,13.37
2023-01-26T16:36:28.623Z,11.23
2023-01-26T16:38:56.785Z,11.90
2023-01-26T16:41:28.527Z,12.40
2023-01-26T16:43:58.064Z,11.20
2023-01-26T16:46:27.050Z,11.60
2023-01-26T16:48:55.667Z,11.40
2023-01-26T16:51:26.768Z,11.67
2023-01-26T16:53:56.017Z,12.43
2023-01-26T16:56:28.734Z,11.13
2023-01-26T16:58:57.601Z,10.93
2023-01-26T17:01:29.248Z,11.43
2023-01-26T17:03:57.958Z,11.17
2023-01-26T17:06:27.304Z,11.30
2023-01-26T17:08:56.048Z,11.10
2023-01-26T17:11:28.108Z,10.87
2023-01-26T17:13:57.176Z,13.80
2023-01-26T17:16:29.632Z,11.70
2023-01-26T17:18:58.495Z,11.07
2023-01-26T17:21:27.730Z,11.07
2023-01-26T17:23:57.785Z,10.57
2023-01-26T17:26:27.614Z,10.47
2023-01-26T17:28:57.069Z,11.63
2023-01-26T17:31:26.353Z,11.03
2023-01-26T17:33:56.485Z,11.23
2023-01-26T17:36:25.170Z,11.30
2023-01-26T17:38:53.552Z,12.73
2023-01-26T17:41:21.810Z,11.27
2023-01-26T17:43:53.089Z,11.73
2023-01-26T17:46:23.171Z,10.53
2023-01-26T17:48:52.586Z,12.10
2023-01-26T17:51:23.189Z,11.43
2023-01-26T17:53:51.737Z,11.47
2023-01-26T17:56:22.642Z,12.13
2023-01-26T17:58:54.763Z,12.80
2023-01-26T18:01:25.179Z,11.20
2023-01-26T18:03:54.606Z,11.67
2023-01-26T18:06:23.425Z,11.47
2023-01-26T18:08:52.390Z,11.23
2023-01-26T18:11:21.132Z,11.47
2023-01-26T18:13:52.176Z,11.57
2023-01-26T18:16:22.892Z,12.10
2023-01-26T18:18:56.801Z,15.53
2023-01-26T18:21:27.221Z,12.80
2023-01-26T18:23:59.644Z,13.40
2023-01-26T18:26:31.622Z,12.67
2023-01-26T18:29:01.561Z,13.77
2023-01-26T18:31:36.363Z,12.43
2023-01-26T18:34:06.516Z,13.13
2023-01-26T18:36:37.745Z,11.13
2023-01-26T18:39:08.307Z,11.33
2023-01-26T18:41:38.693Z,12.00
2023-01-26T18:44:08.597Z,10.90
2023-01-26T18:46:38.948Z,11.43
2023-01-26T18:49:07.904Z,10.70
2023-01-26T18:51:38.996Z,12.17
2023-01-26T18:54:12.151Z,11.10
2023-01-26T18:56:41.192Z,11.03
2023-01-26T18:59:11.190Z,11.93
2023-01-26T19:01:43.894Z,16.00
2023-01-26T19:04:17.924Z,13.23
2023-01-26T19:06:48.158Z,16.67
2023-01-26T19:09:17.755Z,16.60
2023-01-26T19:11:47.952Z,12.53
2023-01-26T19:14:17.947Z,12.93
2023-01-26T19:16:50.070Z,11.97
2023-01-26T19:19:20.564Z,12.23
2023-01-26T19:21:52.534Z,12.53
2023-01-26T19:24:24.450Z,13.50
2023-01-26T19:26:57.218Z,13.57
2023-01-26T19:29:26.821Z,12.47
2023-01-26T19:32:00.458Z,13.37
2023-01-26T19:34:31.699Z,12.50
2023-01-26T19:37:01.031Z,10.73
2023-01-26T19:39:31.277Z,10.40
2023-01-26T19:42:03.582Z,8.60
2023-01-26T19:44:33.706Z,10.17
2023-01-26T19:47:04.785Z,9.43
2023-01-26T19:49:36.190Z,11.30
2023-01-26T19:52:06.444Z,11.40
2023-01-26T19:54:37.136Z,10.73
2023-01-26T19:57:08.010Z,10.70
2023-01-26T19:59:39.062Z,8.43
2023-01-26T20:02:11.610Z,8.57
2023-01-26T20:04:40.394Z,11.97
2023-01-26T20:07:10.755Z,9.67
2023-01-26T20:09:40.369Z,9.60
2023-01-26T20:12:11.632Z,10.00
2023-01-26T20:14:40.786Z,10.80
2023-01-26T20:17:11.420Z,9.07
2023-01-26T20:19:40.743Z,10.40
2023-01-26T20:22:10.551Z,10.27
2023-01-26T20:24:40.662Z,10.63
2023-01-26T20:27:10.654Z,9.47
2023-01-26T20:29:40.759Z,10.67
2023-01-26T20:32:12.949Z,10.23
2023-01-26T20:34:44.228Z,8.80
2023-01-26T20:37:14.673Z,10.93
2023-01-26T20:39:46.879Z,10.03
2023-01-26T20:42:17.957Z,9.67
2023-01-26T20:44:48.121Z,8.17
2023-01-26T20:47:19.013Z,12.80
2023-01-26T20:49:48.238Z,11.10
2023-01-26T20:52:18.063Z,10.97
2023-01-26T20:54:47.495Z,9.60
2023-01-26T20:57:15.797Z,7.93
2023-01-26T20:59:47.657Z,7.73
2023-01-26T21:02:18.574Z,8.10
2023-01-26T21:04:47.824Z,7.87
2023-01-26T21:07:17.045Z,7.67
2023-01-26T21:09:45.712Z,9.30
2023-01-26T21:12:14.990Z,10.10
2023-01-26T21:14:45.408Z,8.63
2023-01-26T21:17:15.685Z,9.03
2023-01-26T21:19:45.285Z,8.97
2023-01-26T21:22:13.503Z,7.73
2023-01-26T21:24:41.633Z,7.60
2023-01-26T21:27:10.529Z,7.87
2023-01-26T21:29:40.571Z,8.13
2023-01-26T21:32:09.461Z,7.27
2023-01-26T21:34:37.928Z,7.63
2023-01-26T21:37:07.770Z,8.73
2023-01-26T21:39:37.352Z,8.03
2023-01-26T21:42:06.233Z,8.57
2023-01-26T21:44:56.159Z,9.37
2023-01-26T21:47:24.659Z,9.67
2023-01-26T21:49:53.882Z,8.93
2023-01-26T21:52:41.107Z,8.27
2023-01-26T21:55:10.011Z,10.07
2023-01-26T21:57:55.356Z,9.13
2023-01-26T22:00:23.762Z,8.20
2023-01-26T22:02:52.944Z,9.07
2023-01-26T22:05:21.586Z,9.47
2023-01-26T22:07:51.199Z,8.97
2023-01-26T22:10:19.413Z,9.07
2023-01-26T22:12:47.508Z,9.20
2023-01-26T22:15:15.692Z,8.83
2023-01-26T22:17:43.813Z,8.97
2023-01-26T22:20:14.214Z,9.97
2023-01-26T22:22:42.477Z,9.00
2023-01-26T22:25:12.385Z,9.93
2023-01-26T22:27:41.781Z,9.47
2023-01-26T22:30:11.622Z,11.50
2023-01-26T22:32:39.999Z,11.13
2023-01-26T22:35:08.524Z,9.43
2023-01-26T22:37:36.637Z,9.10
2023-01-26T22:40:05.284Z,9.40
2023-01-26T22:42:34.793Z,9.10
2023-01-26T22:45:02.976Z,9.07
2023-01-26T22:47:31.083Z,8.97
2023-01-26T22:49:59.230Z,9.43
2023-01-26T22:52:27.333Z,9.83
2023-01-26T22:54:55.439Z,9.03
2023-01-26T22:57:23.559Z,9.90
2023-01-26T22:59:53.080Z,10.43
2023-01-26T23:02:21.204Z,9.00
2023-01-26T23:04:49.324Z,9.70
2023-01-26T23:07:17.442Z,9.77
2023-01-26T23:09:45.585Z,9.83
2023-01-26T23:12:13.772Z,9.10
2023-01-26T23:14:42.077Z,9.13
2023-01-26T23:17:12.652Z,8.80
2023-01-26T23:19:40.734Z,9.30
2023-01-26T23:22:08.814Z,9.07
2023-01-26T23:24:36.925Z,9.60
2023-01-26T23:27:05.113Z,9.53
2023-01-26T23:29:33.207Z,8.70
2023-01-26T23:32:01.397Z,9.47
2023-01-26T23:34:30.909Z,9.47
2023-01-26T23:36:59.019Z,10.73
2023-01-26T23:39:27.116Z,9.03
2023-01-26T23:41:55.202Z,9.90
2023-01-26T23:44:23.339Z,9.53
2023-01-26T23:46:51.594Z,9.97
2023-01-26T23:49:19.883Z,8.97
2023-01-26T23:51:49.389Z,9.63
2023-01-26T23:54:17.702Z,9.83
2023-01-26T23:56:45.836Z,9.13
2023-01-26T23:59:13.899Z,8.60
